Time;durP1;ratioP1;P1;durP2;ratioP2;P2;SDS_P1;SDS_P2;PMS_P1;PMS_P2;Temp;Humidity;BMP_temperature;BMP_pressure;BME280_temperature;BME280_humidity;BME280_pressure;Samples;Min_cycle;Max_cycle;Signal;HPM_P1;HPM_P2
2021/06/04 00:01:27;;;;;;;24.33;22.23;;;18.50;98.30;;;;;;4019772;29;20527;-86
2021/06/04 00:03:30;;;;;;;24.60;22.40;;;18.60;98.30;;;;;;4018565;29;20560;-86
2021/06/04 00:05:37;;;;;;;22.80;20.77;;;18.60;98.30;;;;;;4016742;29;20888;-86
2021/06/04 00:07:40;;;;;;;25.90;23.67;;;18.60;98.30;;;;;;4016885;29;21000;-86
2021/06/04 00:09:42;;;;;;;22.43;20.57;;;18.60;98.30;;;;;;4016767;29;21071;-86
2021/06/04 00:11:48;;;;;;;25.87;23.37;;;18.60;98.30;;;;;;4016735;29;20562;-86
2021/06/04 00:13:54;;;;;;;24.27;22.27;;;18.50;98.30;;;;;;4017049;29;20506;-86
2021/06/04 00:16:00;;;;;;;23.87;21.43;;;18.50;98.30;;;;;;4019213;29;20782;-87
2021/06/04 00:18:03;;;;;;;24.10;21.90;;;18.50;98.30;;;;;;4019676;29;20589;-87
2021/06/04 00:20:10;;;;;;;25.83;23.33;;;18.50;98.30;;;;;;4020104;29;21006;-86
2021/06/04 00:22:16;;;;;;;24.13;21.53;;;18.50;98.30;;;;;;4021117;29;20474;-86
2021/06/04 00:24:19;;;;;;;24.33;22.23;;;18.40;98.30;;;;;;4020596;29;20592;-86
2021/06/04 00:26:22;;;;;;;23.97;21.87;;;18.40;98.30;;;;;;4021561;29;20474;-86
2021/06/04 00:28:26;;;;;;;70.50;63.20;;;18.50;98.30;;;;;;4020441;29;20482;-86
2021/06/04 00:30:29;;;;;;;55.07;49.07;;;18.50;98.30;;;;;;4021140;29;20592;-86
2021/06/04 00:32:33;;;;;;;71.00;57.73;;;18.60;98.30;;;;;;4020511;29;20486;-87
2021/06/04 00:34:36;;;;;;;46.10;41.10;;;18.60;98.30;;;;;;4020058;29;20591;-86
2021/06/04 00:36:39;;;;;;;28.27;25.73;;;18.60;98.30;;;;;;4021087;29;20476;-86
2021/06/04 00:38:42;;;;;;;27.47;25.00;;;18.60;98.30;;;;;;4020891;29;20488;-86
2021/06/04 00:40:47;;;;;;;26.00;23.83;;;18.60;98.30;;;;;;4020916;29;21011;-86
2021/06/04 00:42:50;;;;;;;25.00;22.80;;;18.50;98.30;;;;;;4021218;29;20480;-86
2021/06/04 00:44:57;;;;;;;26.27;23.80;;;18.50;98.30;;;;;;4020011;29;20545;-86
2021/06/04 00:47:00;;;;;;;28.20;25.70;;;18.50;98.30;;;;;;4021114;29;20492;-86
2021/06/04 00:49:04;;;;;;;26.40;23.90;;;18.40;98.30;;;;;;4020254;29;20484;-87
2021/06/04 00:51:11;;;;;;;26.83;24.47;;;18.30;98.30;;;;;;4020591;29;21012;-86
2021/06/04 00:53:14;;;;;;;27.60;25.10;;;18.20;98.30;;;;;;4020268;29;20552;-87
2021/06/04 00:55:20;;;;;;;26.13;23.73;;;18.20;98.30;;;;;;4020594;29;20841;-87
2021/06/04 00:57:23;;;;;;;26.20;23.77;;;18.20;98.30;;;;;;4020699;29;20565;-87
2021/06/04 00:59:28;;;;;;;25.20;22.67;;;18.20;98.30;;;;;;4021344;29;21006;-87
2021/06/04 01:01:34;;;;;;;26.47;24.17;;;18.30;98.30;;;;;;4020306;29;20477;-87
2021/06/04 01:03:39;;;;;;;26.80;24.20;;;18.40;98.30;;;;;;4020719;29;20493;-87
2021/06/04 01:05:44;;;;;;;25.70;23.20;;;18.40;98.30;;;;;;4020192;29;20478;-87
2021/06/04 01:08:04;;;;;;;25.10;22.93;;;18.40;98.30;;;;;;4020278;29;20466;-87
2021/06/04 01:10:19;;;;;;;26.87;24.43;;;18.30;98.30;;;;;;4020768;29;20477;-87
2021/06/04 01:12:52;;;;;;;26.80;23.73;;;18.40;98.30;;;;;;4020633;29;20549;-87
2021/06/04 01:15:03;;;;;;;24.87;22.63;;;18.40;98.30;;;;;;4011245;29;20821;-87
2021/06/04 01:17:14;;;;;;;24.43;21.87;;;18.20;98.30;;;;;;4020476;29;21027;-87
2021/06/04 01:19:48;;;;;;;24.93;22.73;;;18.00;98.30;;;;;;4020252;29;20836;-87
2021/06/04 01:21:55;;;;;;;23.53;21.43;;;18.00;98.30;;;;;;4016035;29;20569;-87
2021/06/04 01:24:11;;;;;;;24.17;21.90;;;18.10;98.30;;;;;;4020295;29;20533;-87
2021/06/04 01:26:21;;;;;;;25.20;22.70;;;18.10;98.30;;;;;;4019430;29;20604;-86
2021/06/04 01:28:27;;;;;;;26.83;24.33;;;18.20;98.30;;;;;;4020095;29;21240;-87
2021/06/04 01:30:34;;;;;;;25.07;21.90;;;18.10;98.30;;;;;;4019755;29;20513;-86
2021/06/04 01:32:37;;;;;;;24.23;22.20;;;18.10;98.30;;;;;;4019807;29;20509;-86
2021/06/04 01:34:43;;;;;;;24.53;22.27;;;18.00;98.30;;;;;;4019749;29;20500;-86
2021/06/04 01:36:50;;;;;;;25.63;23.13;;;18.00;98.30;;;;;;4020164;29;20474;-86
2021/06/04 01:38:55;;;;;;;23.60;21.33;;;18.00;98.30;;;;;;4019738;29;20478;-86
2021/06/04 01:41:01;;;;;;;22.93;21.00;;;17.90;98.30;;;;;;4018570;29;20478;-87
2021/06/04 01:43:08;;;;;;;23.30;21.20;;;18.00;98.30;;;;;;4019689;29;20487;-86
2021/06/04 01:45:17;;;;;;;24.17;21.87;;;18.00;98.30;;;;;;4019511;29;20558;-86
2021/06/04 01:47:28;;;;;;;26.37;24.17;;;18.00;98.30;;;;;;4019997;29;20477;-87
2021/06/04 01:49:35;;;;;;;23.53;21.07;;;18.00;98.30;;;;;;4020079;29;20470;-87
2021/06/04 01:51:45;;;;;;;24.03;21.83;;;18.00;98.30;;;;;;4019803;29;20525;-86
2021/06/04 01:53:51;;;;;;;24.37;22.07;;;18.10;98.30;;;;;;4019151;29;20494;-86
2021/06/04 01:55:56;;;;;;;23.40;21.10;;;18.10;98.30;;;;;;4020035;29;20968;-87
2021/06/04 01:58:02;;;;;;;23.00;20.90;;;18.00;98.30;;;;;;4019553;29;20486;-87
2021/06/04 02:00:09;;;;;;;22.30;20.30;;;17.90;98.30;;;;;;4020238;29;20935;-87
2021/06/04 02:02:13;;;;;;;22.83;20.77;;;17.90;98.30;;;;;;4019813;29;20969;-87
2021/06/04 02:04:22;;;;;;;23.00;21.00;;;18.00;98.30;;;;;;4019959;29;20494;-86
2021/06/04 02:06:26;;;;;;;22.70;20.77;;;18.00;98.30;;;;;;4019354;29;20469;-86
2021/06/04 02:08:33;;;;;;;21.97;19.90;;;18.00;98.30;;;;;;4019543;29;20480;-86
2021/06/04 02:10:46;;;;;;;21.30;19.30;;;18.10;98.30;;;;;;4019012;29;20472;-86
2021/06/04 02:12:49;;;;;;;21.83;19.83;;;18.20;98.30;;;;;;4018835;29;20477;-86
2021/06/04 02:14:56;;;;;;;21.40;19.40;;;18.10;98.30;;;;;;4018563;29;20570;-86
2021/06/04 02:17:20;;;;;;;22.23;20.37;;;18.10;98.30;;;;;;4019724;29;20564;-86
2021/06/04 02:19:34;;;;;;;23.60;21.40;;;18.10;98.30;;;;;;4019654;29;20482;-87
2021/06/04 02:21:46;;;;;;;23.40;21.10;;;18.00;98.30;;;;;;4019145;29;20477;-87
2021/06/04 02:23:54;;;;;;;23.07;20.73;;;18.00;98.30;;;;;;4019368;29;20592;-86
2021/06/04 02:26:04;;;;;;;23.07;21.00;;;17.90;98.30;;;;;;4019430;29;20919;-87
2021/06/04 02:28:11;;;;;;;22.67;20.67;;;17.80;98.30;;;;;;4019614;29;20462;-86
2021/06/04 02:30:18;;;;;;;22.40;20.40;;;17.70;98.30;;;;;;4019567;29;20512;-87
2021/06/04 02:32:26;;;;;;;23.40;21.00;;;17.60;98.30;;;;;;4017573;29;20496;-86
2021/06/04 02:34:33;;;;;;;22.47;20.13;;;17.60;98.30;;;;;;4018815;29;20529;-87
2021/06/04 02:36:42;;;;;;;23.50;21.00;;;17.50;98.30;;;;;;4019148;29;20474;-87
2021/06/04 02:38:48;;;;;;;24.57;22.10;;;17.40;98.30;;;;;;4019126;29;20473;-86
2021/06/04 02:40:56;;;;;;;23.77;21.53;;;17.40;98.30;;;;;;4019130;29;20481;-86
2021/06/04 02:43:03;;;;;;;23.90;21.70;;;17.50;98.30;;;;;;4018923;29;20469;-87
2021/06/04 02:45:14;;;;;;;21.20;19.10;;;17.60;98.30;;;;;;4018569;29;20576;-86
2021/06/04 02:47:24;;;;;;;24.37;22.03;;;17.70;98.30;;;;;;4018927;29;20960;-87
2021/06/04 02:49:28;;;;;;;23.07;21.10;;;17.60;98.30;;;;;;4018470;29;20892;-87
2021/06/04 02:51:33;;;;;;;24.50;22.20;;;17.60;98.30;;;;;;4018274;29;20494;-87
2021/06/04 02:53:40;;;;;;;23.70;21.60;;;17.60;98.30;;;;;;4018449;29;20534;-86
2021/06/04 02:56:08;;;;;;;22.87;20.67;;;17.60;98.30;;;;;;4018450;29;20905;-86
2021/06/04 02:58:11;;;;;;;22.63;20.60;;;17.60;98.30;;;;;;4019212;29;20561;-87
2021/06/04 03:00:20;;;;;;;24.93;22.30;;;17.50;98.30;;;;;;4018823;29;20786;-87
2021/06/04 03:02:27;;;;;;;24.03;21.73;;;17.60;98.30;;;;;;4018985;29;20991;-86
2021/06/04 03:04:34;;;;;;;23.13;21.00;;;17.60;98.30;;;;;;4018337;29;20501;-87
2021/06/04 03:06:39;;;;;;;22.60;20.60;;;17.50;98.30;;;;;;4017736;29;20466;-86
2021/06/04 03:08:44;;;;;;;24.27;21.83;;;17.50;98.30;;;;;;4018768;29;20497;-87
2021/06/04 03:10:50;;;;;;;23.03;21.00;;;17.60;98.30;;;;;;4018606;29;20500;-86
2021/06/04 03:12:53;;;;;;;22.67;20.60;;;17.60;98.30;;;;;;4018524;29;20997;-86
2021/06/04 03:14:58;;;;;;;22.33;20.33;;;17.60;98.30;;;;;;4018611;29;20497;-86
2021/06/04 03:17:21;;;;;;;22.53;20.43;;;17.50;98.30;;;;;;4018334;29;20972;-86
2021/06/04 03:19:25;;;;;;;22.20;20.10;;;17.60;98.30;;;;;;4017214;29;20483;-86
2021/06/04 03:21:32;;;;;;;24.40;20.37;;;17.60;98.30;;;;;;4017843;29;20484;-86
2021/06/04 03:23:37;;;;;;;22.37;20.13;;;17.60;98.30;;;;;;4018032;29;20874;-86
2021/06/04 03:25:42;;;;;;;22.93;20.83;;;17.60;98.30;;;;;;4017817;29;20557;-86
2021/06/04 03:27:49;;;;;;;21.30;19.20;;;17.50;98.30;;;;;;4018049;29;20481;-86
2021/06/04 03:29:52;;;;;;;22.10;20.10;;;17.50;98.30;;;;;;4019194;29;20469;-87
2021/06/04 03:31:58;;;;;;;22.33;20.20;;;17.50;98.30;;;;;;4017698;29;20500;-88
2021/06/04 03:34:01;;;;;;;22.53;20.43;;;17.60;98.30;;;;;;4018797;29;20496;-88
2021/06/04 03:36:09;;;;;;;23.37;21.17;;;17.50;98.30;;;;;;4018698;29;20478;-86
2021/06/04 03:38:12;;;;;;;22.83;20.83;;;17.50;98.30;;;;;;4018617;29;20573;-86
2021/06/04 03:40:19;;;;;;;21.43;19.63;;;17.50;98.30;;;;;;4018687;29;20474;-86
2021/06/04 03:42:26;;;;;;;22.33;20.23;;;17.50;98.30;;;;;;4018884;29;20501;-86
2021/06/04 03:44:32;;;;;;;23.10;19.93;;;17.40;98.30;;;;;;4018487;29;20505;-86
2021/06/04 03:46:36;;;;;;;23.93;20.87;;;17.30;98.30;;;;;;4019516;29;20470;-87
2021/06/04 03:48:38;;;;;;;21.07;18.87;;;17.20;98.30;;;;;;4017807;29;20482;-86
2021/06/04 03:50:41;;;;;;;22.80;20.63;;;17.30;98.30;;;;;;4018448;29;20493;-87
2021/06/04 03:52:45;;;;;;;22.43;19.47;;;17.30;98.30;;;;;;4018325;29;20505;-87
2021/06/04 03:54:50;;;;;;;21.37;19.27;;;17.30;98.30;;;;;;4018185;29;20597;-87
2021/06/04 03:56:54;;;;;;;18.63;17.03;;;17.30;98.30;;;;;;4017797;29;20478;-87
2021/06/04 03:58:58;;;;;;;20.17;18.47;;;17.30;98.30;;;;;;4018461;29;20488;-87
2021/06/04 04:01:04;;;;;;;21.07;19.30;;;17.40;98.30;;;;;;4018705;29;20474;-87
2021/06/04 04:03:08;;;;;;;19.83;17.77;;;17.40;98.30;;;;;;4018328;29;20530;-87
2021/06/04 04:05:15;;;;;;;20.23;18.33;;;17.50;98.30;;;;;;4017592;29;20494;-86
2021/06/04 04:07:19;;;;;;;19.50;17.57;;;17.60;98.30;;;;;;4018237;29;20540;-87
2021/06/04 04:09:23;;;;;;;20.47;18.53;;;17.70;98.30;;;;;;4018719;29;20481;-86
2021/06/04 04:11:26;;;;;;;19.23;17.63;;;17.70;98.30;;;;;;4019235;29;20561;-86
2021/06/04 04:13:29;;;;;;;21.33;17.90;;;17.60;98.30;;;;;;4017611;29;20699;-87
2021/06/04 04:15:32;;;;;;;19.60;17.97;;;17.70;98.30;;;;;;4019000;29;20558;-87
2021/06/04 04:17:34;;;;;;;20.00;18.30;;;17.70;98.30;;;;;;4019533;29;20478;-87
2021/06/04 04:19:37;;;;;;;19.17;17.17;;;17.70;98.30;;;;;;4018667;29;20488;-86
2021/06/04 04:21:41;;;;;;;20.30;18.60;;;17.70;98.30;;;;;;4018180;29;20481;-87
2021/06/04 04:23:48;;;;;;;20.30;17.87;;;17.60;98.30;;;;;;4018666;29;20510;-87
2021/06/04 04:25:52;;;;;;;19.83;17.87;;;17.70;98.30;;;;;;4019190;29;20561;-87
2021/06/04 04:27:54;;;;;;;20.07;18.10;;;17.70;98.30;;;;;;4018747;29;20484;-87
2021/06/04 04:29:58;;;;;;;19.90;18.00;;;17.70;98.30;;;;;;4018588;29;20902;-86
2021/06/04 04:32:05;;;;;;;20.83;18.93;;;17.80;98.30;;;;;;4018088;29;20525;-87
2021/06/04 04:34:08;;;;;;;18.13;16.33;;;17.70;98.30;;;;;;4017823;29;20498;-87
2021/06/04 04:36:16;;;;;;;20.20;18.20;;;17.60;98.30;;;;;;4018221;29;20485;-86
2021/06/04 04:38:21;;;;;;;17.87;16.07;;;17.70;98.30;;;;;;4018306;29;20478;-87
2021/06/04 04:40:34;;;;;;;18.00;16.20;;;17.70;98.30;;;;;;4018208;29;20478;-87
2021/06/04 04:42:39;;;;;;;19.23;17.53;;;17.70;98.30;;;;;;4018379;29;20470;-87
2021/06/04 04:44:42;;;;;;;18.17;16.47;;;17.70;98.30;;;;;;4017383;29;20490;-87
2021/06/04 04:46:45;;;;;;;18.50;16.60;;;17.80;98.30;;;;;;4017708;29;20478;-87
2021/06/04 04:48:48;;;;;;;18.83;17.03;;;17.80;98.30;;;;;;4018150;29;20478;-87
2021/06/04 04:50:52;;;;;;;18.90;17.00;;;17.80;98.30;;;;;;4018348;29;20489;-87
2021/06/04 04:52:55;;;;;;;18.70;16.80;;;17.80;98.30;;;;;;4017799;29;20498;-87
2021/06/04 04:54:59;;;;;;;17.20;15.47;;;17.90;98.30;;;;;;4017872;29;21034;-87
2021/06/04 04:57:02;;;;;;;16.90;15.37;;;17.90;98.30;;;;;;4017527;29;20470;-87
2021/06/04 04:59:06;;;;;;;17.60;15.50;;;17.80;98.30;;;;;;4017623;29;20806;-88
2021/06/04 05:01:10;;;;;;;16.37;14.93;;;17.80;98.30;;;;;;4020642;29;20565;-87
2021/06/04 05:03:14;;;;;;;15.87;14.40;;;17.90;98.30;;;;;;4021892;29;20498;-87
2021/06/04 05:05:17;;;;;;;15.63;14.03;;;17.80;98.30;;;;;;4020616;29;20481;-87
2021/06/04 05:07:20;;;;;;;16.47;15.03;;;17.80;98.30;;;;;;4020228;29;20478;-87
2021/06/04 05:09:23;;;;;;;15.20;13.90;;;17.90;98.30;;;;;;4020886;29;20573;-87
2021/06/04 05:11:26;;;;;;;17.50;15.90;;;17.90;98.30;;;;;;4021302;29;20485;-87
2021/06/04 05:13:29;;;;;;;16.53;14.90;;;17.90;98.30;;;;;;4020779;29;20501;-87
2021/06/04 05:15:35;;;;;;;16.33;14.93;;;17.90;98.30;;;;;;4021039;29;20474;-87
2021/06/04 05:17:37;;;;;;;16.30;14.90;;;17.80;98.30;;;;;;4021431;29;20475;-87
2021/06/04 05:19:43;;;;;;;15.70;14.03;;;17.80;98.30;;;;;;4021077;29;20474;-87
2021/06/04 05:21:45;;;;;;;15.73;14.37;;;17.80;98.30;;;;;;4021014;29;20476;-87
2021/06/04 05:23:48;;;;;;;16.57;14.97;;;17.90;98.30;;;;;;4021042;29;20523;-88
2021/06/04 05:25:52;;;;;;;16.57;15.07;;;17.90;98.30;;;;;;4021611;29;20478;-87
2021/06/04 05:27:55;;;;;;;16.60;14.80;;;17.90;98.30;;;;;;4019984;29;20481;-87
2021/06/04 05:29:57;;;;;;;16.67;14.73;;;17.80;98.30;;;;;;4020659;29;20518;-86
2021/06/04 05:32:02;;;;;;;16.10;14.77;;;17.80;98.30;;;;;;4020329;29;20477;-86
2021/06/04 05:34:06;;;;;;;15.60;14.20;;;17.80;98.30;;;;;;4019772;29;20529;-86
2021/06/04 05:36:12;;;;;;;16.27;14.67;;;17.90;98.30;;;;;;4020831;29;20569;-87
2021/06/04 05:38:15;;;;;;;15.60;14.10;;;17.80;98.30;;;;;;4020841;29;20474;-85
2021/06/04 05:40:21;;;;;;;16.67;14.70;;;17.80;98.30;;;;;;4021409;29;20526;-86
2021/06/04 05:42:23;;;;;;;14.57;13.30;;;17.90;98.30;;;;;;4017775;29;21132;-85
2021/06/04 05:44:27;;;;;;;15.67;14.37;;;18.10;98.30;;;;;;4020844;29;20589;-86
2021/06/04 05:46:31;;;;;;;16.67;14.50;;;18.10;98.30;;;;;;4021049;29;20501;-85
2021/06/04 05:48:35;;;;;;;16.10;14.60;;;18.00;98.30;;;;;;4021529;29;20481;-84
2021/06/04 05:50:41;;;;;;;14.47;13.07;;;18.00;98.30;;;;;;4016822;29;21028;-84
2021/06/04 05:52:44;;;;;;;15.33;13.80;;;18.10;98.30;;;;;;4022923;29;20486;-86
2021/06/04 05:54:48;;;;;;;15.50;14.10;;;18.30;98.30;;;;;;4022645;29;20493;-84
2021/06/04 05:56:50;;;;;;;14.30;13.00;;;18.40;98.30;;;;;;4019563;29;20478;-86
2021/06/04 05:58:54;;;;;;;17.20;15.60;;;18.50;98.30;;;;;;4022938;29;20474;-86
2021/06/04 06:00:59;;;;;;;15.23;13.93;;;18.50;98.30;;;;;;4020259;29;21232;-86
2021/06/04 06:03:04;;;;;;;16.47;14.20;;;18.50;98.30;;;;;;4021401;29;20541;-86
2021/06/04 06:05:09;;;;;;;14.93;13.63;;;18.60;98.30;;;;;;4022918;29;20581;-86
2021/06/04 06:07:12;;;;;;;15.77;14.37;;;18.60;98.30;;;;;;4021971;29;20470;-86
2021/06/04 06:09:14;;;;;;;15.57;14.17;;;18.70;98.30;;;;;;4021251;29;20482;-86
2021/06/04 06:11:21;;;;;;;15.43;14.07;;;18.70;98.30;;;;;;4021127;29;20474;-86
2021/06/04 06:13:24;;;;;;;15.57;14.17;;;18.70;98.30;;;;;;4020259;29;21128;-86
2021/06/04 06:15:28;;;;;;;17.33;14.13;;;18.70;98.30;;;;;;4020771;29;20980;-86
2021/06/04 06:17:31;;;;;;;15.67;14.23;;;18.60;98.30;;;;;;4021333;29;21004;-86
2021/06/04 06:19:33;;;;;;;16.50;14.70;;;18.60;98.30;;;;;;4021487;29;20474;-86
2021/06/04 06:21:39;;;;;;;17.80;16.10;;;18.50;98.30;;;;;;4021194;29;20899;-87
2021/06/04 06:23:43;;;;;;;17.30;15.57;;;18.60;98.30;;;;;;4021728;29;20502;-87
2021/06/04 06:25:48;;;;;;;19.30;17.27;;;18.60;98.30;;;;;;4020049;29;20478;-86
2021/06/04 06:27:51;;;;;;;14.90;13.60;;;18.70;98.30;;;;;;4023134;29;20480;-86
2021/06/04 06:29:53;;;;;;;15.07;13.67;;;18.80;98.30;;;;;;4018847;29;20474;-86
2021/06/04 06:31:56;;;;;;;15.93;14.63;;;18.80;98.30;;;;;;4025985;29;20481;-87
2021/06/04 06:33:59;;;;;;;15.13;13.83;;;19.00;98.30;;;;;;4022287;29;20494;-86
2021/06/04 06:36:05;;;;;;;15.10;12.70;;;19.10;98.30;;;;;;4022783;29;20478;-86
2021/06/04 06:38:10;;;;;;;14.30;13.10;;;19.20;98.30;;;;;;4022834;29;20470;-86
2021/06/04 06:40:13;;;;;;;15.00;13.40;;;19.30;98.30;;;;;;4021903;29;20478;-87
2021/06/04 06:42:15;;;;;;;13.30;12.10;;;19.40;98.30;;;;;;4021675;29;20489;-87
2021/06/04 06:44:18;;;;;;;26.93;22.27;;;19.50;98.30;;;;;;4013200;29;20506;-86
2021/06/04 06:46:23;;;;;;;16.90;15.20;;;19.50;98.30;;;;;;4021342;29;20571;-87
2021/06/04 06:48:26;;;;;;;14.47;12.97;;;19.50;98.30;;;;;;4022056;29;20482;-86
2021/06/04 06:50:30;;;;;;;13.07;11.87;;;19.50;98.30;;;;;;4022508;29;20488;-86
2021/06/04 06:52:33;;;;;;;14.00;12.80;;;19.50;98.30;;;;;;4015365;29;20937;-85
2021/06/04 06:54:40;;;;;;;15.20;13.80;;;19.50;98.30;;;;;;4022555;29;20494;-86
2021/06/04 06:56:44;;;;;;;13.27;12.07;;;19.80;98.30;;;;;;4023173;29;20829;-86
2021/06/04 06:58:47;;;;;;;25.83;17.90;;;19.90;98.30;;;;;;4023089;29;20984;-86
2021/06/04 07:00:52;;;;;;;16.20;14.63;;;20.00;98.30;;;;;;4023313;29;20570;-87
2021/06/04 07:02:55;;;;;;;14.80;13.30;;;19.90;98.30;;;;;;4024413;29;20884;-86
2021/06/04 07:04:58;;;;;;;15.63;14.23;;;19.90;98.30;;;;;;4025314;29;20498;-86
2021/06/04 07:07:04;;;;;;;14.97;13.67;;;19.90;98.30;;;;;;4038329;29;20474;-86
2021/06/04 07:09:10;;;;;;;13.40;12.07;;;20.20;98.30;;;;;;4038947;29;20480;-87
2021/06/04 07:11:15;;;;;;;14.13;12.93;;;20.30;98.30;;;;;;4038900;29;20493;-87
2021/06/04 07:13:25;;;;;;;13.23;12.13;;;20.30;98.30;;;;;;4038133;29;20490;-88
2021/06/04 07:15:28;;;;;;;13.73;12.43;;;20.20;98.30;;;;;;4028981;29;20480;-85
2021/06/04 07:17:31;;;;;;;15.50;14.10;;;20.30;98.30;;;;;;4036554;29;20512;-88
2021/06/04 07:19:35;;;;;;;14.37;13.07;;;20.60;98.30;;;;;;4030208;29;20474;-86
2021/06/04 07:21:39;;;;;;;13.93;12.53;;;20.60;98.30;;;;;;4022262;29;20470;-86
2021/06/04 07:23:41;;;;;;;13.93;12.73;;;20.80;98.30;;;;;;4021892;29;20524;-86
2021/06/04 07:25:46;;;;;;;14.17;12.90;;;20.80;98.30;;;;;;4022477;29;20481;-86
2021/06/04 07:27:51;;;;;;;12.77;11.67;;;21.00;98.30;;;;;;4022506;29;20504;-86
2021/06/04 07:29:53;;;;;;;13.07;11.97;;;20.90;98.30;;;;;;4021263;29;20486;-87
2021/06/04 07:31:57;;;;;;;14.37;12.50;;;20.90;98.30;;;;;;4022248;29;20470;-86
2021/06/04 07:34:03;;;;;;;12.70;11.53;;;20.90;98.30;;;;;;4021320;29;20566;-86
2021/06/04 07:36:10;;;;;;;12.37;11.27;;;20.80;98.30;;;;;;4021684;29;20564;-87
2021/06/04 07:38:13;;;;;;;13.50;12.30;;;21.10;98.30;;;;;;4021863;29;20482;-86
2021/06/04 07:40:19;;;;;;;14.53;11.93;;;21.00;98.30;;;;;;4021465;29;20482;-87
2021/06/04 07:42:22;;;;;;;13.90;12.70;;;21.00;98.30;;;;;;4022187;29;20470;-86
2021/06/04 07:44:27;;;;;;;12.17;11.17;;;21.00;98.30;;;;;;4022233;29;20861;-86
2021/06/04 07:46:30;;;;;;;12.97;11.70;;;21.00;98.30;;;;;;4022090;29;20486;-87
2021/06/04 07:48:33;;;;;;;13.00;11.90;;;21.10;98.30;;;;;;4022002;29;20477;-86
2021/06/04 07:50:36;;;;;;;13.97;12.53;;;21.20;98.30;;;;;;4021786;29;21009;-86
2021/06/04 07:52:39;;;;;;;32.07;25.37;;;21.10;98.30;;;;;;4022252;29;20478;-86
2021/06/04 07:54:42;;;;;;;24.03;21.60;;;21.20;98.30;;;;;;4021658;29;20501;-86
2021/06/04 07:56:46;;;;;;;17.60;15.80;;;21.40;98.30;;;;;;4022389;29;20480;-86
2021/06/04 07:58:49;;;;;;;13.10;11.77;;;21.40;98.30;;;;;;4022531;29;20477;-86
2021/06/04 08:00:55;;;;;;;13.47;12.27;;;21.20;98.30;;;;;;4021854;29;20478;-86
2021/06/04 08:03:02;;;;;;;13.60;12.50;;;21.10;98.30;;;;;;4019487;29;21070;-87
2021/06/04 08:05:07;;;;;;;13.47;12.37;;;21.20;98.30;;;;;;4021648;29;21402;-86
2021/06/04 08:07:10;;;;;;;11.90;11.00;;;21.40;98.30;;;;;;4022058;29;20672;-86
2021/06/04 08:09:14;;;;;;;13.90;12.43;;;21.60;98.30;;;;;;4022250;29;20470;-87
2021/06/04 08:11:22;;;;;;;14.27;12.00;;;21.70;98.30;;;;;;4021841;29;20474;-85
2021/06/04 08:13:25;;;;;;;12.30;11.20;;;21.60;98.30;;;;;;4022102;29;20509;-86
2021/06/04 08:15:32;;;;;;;12.60;11.40;;;21.70;98.30;;;;;;4021707;29;20577;-86
2021/06/04 08:17:36;;;;;;;12.37;11.27;;;22.00;98.30;;;;;;4017499;29;21013;-86
2021/06/04 08:19:41;;;;;;;12.43;11.10;;;22.30;98.30;;;;;;4012730;29;20615;-86
2021/06/04 08:21:46;;;;;;;12.60;11.50;;;22.40;98.30;;;;;;4023686;29;20481;-86
2021/06/04 08:23:50;;;;;;;11.93;10.93;;;22.60;98.30;;;;;;4022669;29;20505;-86
2021/06/04 08:25:57;;;;;;;12.13;10.70;;;22.70;98.30;;;;;;4021549;29;20474;-86
2021/06/04 08:27:59;;;;;;;13.17;11.87;;;22.80;98.30;;;;;;4021792;29;20701;-86
2021/06/04 08:30:05;;;;;;;13.00;11.70;;;22.90;98.30;;;;;;4021730;29;20479;-87
2021/06/04 08:32:09;;;;;;;11.97;10.80;;;22.90;98.30;;;;;;4011100;29;20509;-86
2021/06/04 08:34:14;;;;;;;12.07;10.93;;;23.20;98.30;;;;;;4016984;29;20534;-86
2021/06/04 08:36:19;;;;;;;12.37;11.37;;;23.30;98.30;;;;;;4021571;29;20462;-88
2021/06/04 08:38:22;;;;;;;12.17;11.17;;;23.30;98.30;;;;;;4021885;29;20848;-86
2021/06/04 08:40:27;;;;;;;12.27;11.27;;;23.40;98.30;;;;;;4022162;29;20478;-87
2021/06/04 08:42:38;;;;;;;12.73;11.63;;;23.50;98.30;;;;;;4021937;29;20852;-86
2021/06/04 08:44:51;;;;;;;13.83;11.40;;;23.50;98.30;;;;;;4021322;29;20852;-87
2021/06/04 08:47:02;;;;;;;12.93;11.60;;;23.60;98.30;;;;;;4021757;29;20844;-86
2021/06/04 08:49:12;;;;;;;22.47;20.07;;;23.80;98.30;;;;;;4021845;29;20477;-86
2021/06/04 08:51:28;;;;;;;14.10;12.90;;;24.00;98.30;;;;;;4021650;29;20814;-86
2021/06/04 08:53:37;;;;;;;11.77;10.80;;;24.00;98.30;;;;;;4021586;29;20500;-87
2021/06/04 08:55:44;;;;;;;11.87;10.13;;;23.90;97.20;;;;;;4021249;29;20485;-87
2021/06/04 08:57:51;;;;;;;11.40;10.20;;;24.00;96.40;;;;;;4021348;29;20474;-87
2021/06/04 08:59:56;;;;;;;11.30;10.27;;;23.90;95.50;;;;;;4021140;29;20852;-86
2021/06/04 09:02:01;;;;;;;11.57;10.43;;;24.00;96.00;;;;;;4021250;29;20568;-86
2021/06/04 09:04:08;;;;;;;11.13;10.23;;;24.20;95.40;;;;;;4021561;29;20851;-87
2021/06/04 09:06:13;;;;;;;11.87;10.17;;;24.20;94.90;;;;;;4021338;29;20474;-86
2021/06/04 09:08:28;;;;;;;9.87;9.10;;;24.30;94.60;;;;;;4021197;29;20478;-87
2021/06/04 09:10:35;;;;;;;9.73;8.80;;;24.30;94.70;;;;;;4021324;29;20481;-87
2021/06/04 09:12:48;;;;;;;10.90;9.80;;;24.30;93.50;;;;;;4021446;29;20470;-87
2021/06/04 09:14:53;;;;;;;10.90;9.90;;;24.40;93.90;;;;;;4023404;29;20501;-87
2021/06/04 09:17:08;;;;;;;10.00;9.20;;;24.50;94.00;;;;;;4025253;29;21007;-87
2021/06/04 09:19:20;;;;;;;12.57;11.47;;;24.60;94.30;;;;;;4021145;29;20542;-87
2021/06/04 09:21:26;;;;;;;14.40;13.00;;;24.80;93.70;;;;;;4021518;29;20477;-87
2021/06/04 09:23:35;;;;;;;12.70;11.60;;;25.00;93.40;;;;;;4021051;29;21017;-86
2021/06/04 09:25:39;;;;;;;11.03;10.03;;;25.10;92.10;;;;;;4020968;29;20999;-87
2021/06/04 09:27:44;;;;;;;11.00;9.90;;;25.30;90.70;;;;;;4021233;29;20484;-88
2021/06/04 17:17:35;;;;;;;12.27;9.80;;;25.50;90.20;;;;;;4035109;29;20863;-84
2021/06/04 17:19:37;;;;;;;10.77;9.63;;;25.40;90.50;;;;;;4036147;29;20480;-87
2021/06/04 17:21:42;;;;;;;10.77;9.87;;;25.40;90.80;;;;;;4036180;29;20473;-84
2021/06/04 17:23:44;;;;;;;10.07;9.07;;;25.30;91.40;;;;;;4036029;29;20491;-84
2021/06/04 17:25:49;;;;;;;10.30;9.50;;;25.30;91.90;;;;;;4037809;29;20495;-84
2021/06/04 17:27:53;;;;;;;9.50;8.70;;;25.30;92.30;;;;;;4036201;29;20878;-85
2021/06/04 17:29:56;;;;;;;10.70;9.30;;;25.40;92.30;;;;;;4032017;29;20477;-84
2021/06/04 17:31:58;;;;;;;12.40;9.23;;;25.20;92.50;;;;;;4034179;29;20484;-86
2021/06/04 17:34:03;;;;;;;10.23;9.33;;;25.20;92.80;;;;;;4035151;29;20477;-87
2021/06/04 17:36:07;;;;;;;10.30;9.40;;;25.20;92.90;;;;;;4042600;29;20513;-84
2021/06/04 17:38:10;;;;;;;10.20;9.37;;;25.20;93.50;;;;;;4039880;29;20576;-85
2021/06/04 17:40:14;;;;;;;10.90;9.83;;;25.10;93.60;;;;;;4037276;29;20484;-84
2021/06/04 17:42:16;;;;;;;10.83;9.67;;;25.00;94.00;;;;;;4036875;29;20974;-83
2021/06/04 17:44:19;;;;;;;11.20;10.20;;;25.10;94.20;;;;;;4035980;29;20488;-84
2021/06/04 17:46:22;;;;;;;11.93;10.87;;;25.00;94.40;;;;;;4039324;29;20481;-84
2021/06/04 17:48:26;;;;;;;10.80;9.80;;;24.90;94.40;;;;;;4039159;29;20488;-84
2021/06/04 17:50:30;;;;;;;12.37;9.37;;;24.80;94.70;;;;;;4038040;29;20590;-83
2021/06/04 17:52:33;;;;;;;10.80;9.80;;;24.80;95.10;;;;;;4035358;29;20846;-84
2021/06/04 17:54:40;;;;;;;11.23;10.03;;;24.80;94.90;;;;;;4036151;29;20492;-83
2021/06/04 17:56:42;;;;;;;11.67;10.67;;;24.70;94.50;;;;;;4035662;29;20807;-83
2021/06/04 17:58:46;;;;;;;13.53;12.17;;;24.50;94.60;;;;;;4034567;29;20473;-86
2021/06/04 18:00:49;;;;;;;15.93;14.23;;;24.50;95.10;;;;;;4035853;29;20473;-85
2021/06/04 18:02:52;;;;;;;11.23;10.17;;;24.40;95.00;;;;;;4035237;29;20471;-84
2021/06/04 18:04:56;;;;;;;11.00;10.07;;;24.50;95.10;;;;;;4035463;29;20533;-84
2021/06/04 18:06:59;;;;;;;10.80;9.90;;;24.40;95.30;;;;;;4033372;29;20477;-84
2021/06/04 18:09:02;;;;;;;12.37;11.27;;;24.30;95.40;;;;;;4033392;29;20481;-85
2021/06/04 18:11:10;;;;;;;11.27;10.10;;;24.30;95.60;;;;;;4033108;29;20473;-85
2021/06/04 18:13:13;;;;;;;11.33;10.23;;;24.20;95.90;;;;;;4032735;29;20469;-85
2021/06/04 18:15:18;;;;;;;12.10;10.97;;;24.20;96.20;;;;;;4034997;29;20871;-84
2021/06/04 18:17:20;;;;;;;10.93;10.00;;;24.10;96.30;;;;;;4030560;29;20817;-84
2021/06/04 18:19:23;;;;;;;12.20;11.10;;;24.10;96.60;;;;;;4035051;29;20644;-85
2021/06/04 18:21:26;;;;;;;12.50;11.13;;;24.00;97.00;;;;;;4034924;29;20496;-84
2021/06/04 18:23:33;;;;;;;11.97;10.77;;;24.00;97.00;;;;;;4031787;29;20478;-84
2021/06/04 18:25:36;;;;;;;10.73;9.93;;;24.10;96.70;;;;;;4035676;29;20493;-85